sensor_id;sensor_type;location;lat;lon;timestamp;temperature;humidity
19610;DHT22;9952;47.122;-1.638;2023-03-17T00:01:34;10.50;99.90
19610;DHT22;9952;47.122;-1.638;2023-03-17T00:06:17;10.50;99.90
19610;DHT22;9952;47.122;-1.638;2023-03-17T00:11:00;10.50;99.90
19610;DHT22;9952;47.122;-1.638;2023-03-17T00:15:41;10.50;99.90
19610;DHT22;9952;47.122;-1.638;2023-03-17T00:20:27;10.40;99.90
19610;DHT22;9952;47.122;-1.638;2023-03-17T00:25:18;10.40;99.90
19610;DHT22;9952;47.122;-1.638;2023-03-17T00:29:59;10.50;99.90
19610;DHT22;9952;47.122;-1.638;2023-03-17T00:34:40;10.50;99.90
19610;DHT22;9952;47.122;-1.638;2023-03-17T00:39:21;10.50;99.90
19610;DHT22;9952;47.122;-1.638;2023-03-17T00:44:03;10.50;99.90
19610;DHT22;9952;47.122;-1.638;2023-03-17T00:48:44;10.50;99.90
19610;DHT22;9952;47.122;-1.638;2023-03-17T00:53:26;10.60;99.90
19610;DHT22;9952;47.122;-1.638;2023-03-17T00:58:31;10.60;99.90
19610;DHT22;9952;47.122;-1.638;2023-03-17T01:03:13;10.70;99.90
19610;DHT22;9952;47.122;-1.638;2023-03-17T01:07:55;10.70;99.90
19610;DHT22;9952;47.122;-1.638;2023-03-17T01:12:38;10.80;99.90
19610;DHT22;9952;47.122;-1.638;2023-03-17T01:17:19;10.80;99.90
19610;DHT22;9952;47.122;-1.638;2023-03-17T01:22:00;10.90;99.90
19610;DHT22;9952;47.122;-1.638;2023-03-17T01:26:42;10.90;99.90
19610;DHT22;9952;47.122;-1.638;2023-03-17T01:31:24;11.10;99.90
19610;DHT22;9952;47.122;-1.638;2023-03-17T01:36:05;11.20;99.90
19610;DHT22;9952;47.122;-1.638;2023-03-17T01:40:49;11.20;99.90
19610;DHT22;9952;47.122;-1.638;2023-03-17T01:50:49;11.30;99.90
19610;DHT22;9952;47.122;-1.638;2023-03-17T01:55:30;11.30;99.90
19610;DHT22;9952;47.122;-1.638;2023-03-17T02:00:17;11.20;99.90
19610;DHT22;9952;47.122;-1.638;2023-03-17T02:04:58;11.10;99.90
19610;DHT22;9952;47.122;-1.638;2023-03-17T02:09:39;11.10;99.90
19610;DHT22;9952;47.122;-1.638;2023-03-17T02:14:20;11.10;99.90
19610;DHT22;9952;47.122;-1.638;2023-03-17T02:19:01;11.00;99.90
19610;DHT22;9952;47.122;-1.638;2023-03-17T02:23:42;11.00;99.90
19610;DHT22;9952;47.122;-1.638;2023-03-17T02:28:27;11.10;99.90
19610;DHT22;9952;47.122;-1.638;2023-03-17T02:33:10;11.10;99.90
19610;DHT22;9952;47.122;-1.638;2023-03-17T02:37:51;11.10;99.90
19610;DHT22;9952;47.122;-1.638;2023-03-17T02:42:33;11.10;99.90
19610;DHT22;9952;47.122;-1.638;2023-03-17T02:47:14;11.20;99.90
19610;DHT22;9952;47.122;-1.638;2023-03-17T02:51:55;11.30;99.90
19610;DHT22;9952;47.122;-1.638;2023-03-17T02:56:36;11.30;99.90
19610;DHT22;9952;47.122;-1.638;2023-03-17T03:01:17;11.30;99.90
19610;DHT22;9952;47.122;-1.638;2023-03-17T03:05:58;11.30;99.90
19610;DHT22;9952;47.122;-1.638;2023-03-17T03:10:39;11.30;99.90
19610;DHT22;9952;47.122;-1.638;2023-03-17T03:15:21;11.30;99.90
19610;DHT22;9952;47.122;-1.638;2023-03-17T03:20:03;11.30;99.90
19610;DHT22;9952;47.122;-1.638;2023-03-17T03:24:44;11.30;99.90
19610;DHT22;9952;47.122;-1.638;2023-03-17T03:29:25;11.20;99.90
19610;DHT22;9952;47.122;-1.638;2023-03-17T03:34:06;11.20;99.90
19610;DHT22;9952;47.122;-1.638;2023-03-17T03:38:47;11.30;99.90
19610;DHT22;9952;47.122;-1.638;2023-03-17T03:43:27;11.30;99.90
19610;DHT22;9952;47.122;-1.638;2023-03-17T03:48:08;11.40;99.90
19610;DHT22;9952;47.122;-1.638;2023-03-17T03:52:49;11.50;99.90
19610;DHT22;9952;47.122;-1.638;2023-03-17T03:57:30;11.50;99.90
19610;DHT22;9952;47.122;-1.638;2023-03-17T04:02:11;11.60;99.90
19610;DHT22;9952;47.122;-1.638;2023-03-17T04:06:52;11.60;99.90
19610;DHT22;9952;47.122;-1.638;2023-03-17T04:11:32;11.70;99.90
19610;DHT22;9952;47.122;-1.638;2023-03-17T04:16:13;11.80;99.90
19610;DHT22;9952;47.122;-1.638;2023-03-17T04:20:54;11.80;99.90
19610;DHT22;9952;47.122;-1.638;2023-03-17T04:25:36;11.80;99.90
19610;DHT22;9952;47.122;-1.638;2023-03-17T04:30:17;11.80;99.90
19610;DHT22;9952;47.122;-1.638;2023-03-17T04:34:58;11.80;99.90
19610;DHT22;9952;47.122;-1.638;2023-03-17T04:39:39;11.80;99.90
19610;DHT22;9952;47.122;-1.638;2023-03-17T04:44:20;11.90;99.90
19610;DHT22;9952;47.122;-1.638;2023-03-17T04:49:01;11.80;99.90
19610;DHT22;9952;47.122;-1.638;2023-03-17T04:53:41;11.80;99.90
19610;DHT22;9952;47.122;-1.638;2023-03-17T04:58:22;11.80;99.90
19610;DHT22;9952;47.122;-1.638;2023-03-17T05:03:04;11.80;99.90
19610;DHT22;9952;47.122;-1.638;2023-03-17T05:07:46;11.80;99.90
19610;DHT22;9952;47.122;-1.638;2023-03-17T05:12:27;11.80;99.90
19610;DHT22;9952;47.122;-1.638;2023-03-17T05:17:07;11.70;99.90
19610;DHT22;9952;47.122;-1.638;2023-03-17T05:21:48;11.70;99.90
19610;DHT22;9952;47.122;-1.638;2023-03-17T05:26:30;11.70;99.90
19610;DHT22;9952;47.122;-1.638;2023-03-17T05:31:11;11.70;99.90
19610;DHT22;9952;47.122;-1.638;2023-03-17T05:35:51;11.70;99.90
19610;DHT22;9952;47.122;-1.638;2023-03-17T05:40:33;11.70;99.90
19610;DHT22;9952;47.122;-1.638;2023-03-17T05:45:15;11.70;99.90
19610;DHT22;9952;47.122;-1.638;2023-03-17T05:49:56;11.70;99.90
19610;DHT22;9952;47.122;-1.638;2023-03-17T05:54:37;11.70;99.90
19610;DHT22;9952;47.122;-1.638;2023-03-17T05:59:18;11.70;99.90
19610;DHT22;9952;47.122;-1.638;2023-03-17T06:03:59;11.70;99.90
19610;DHT22;9952;47.122;-1.638;2023-03-17T06:08:41;11.70;99.90
19610;DHT22;9952;47.122;-1.638;2023-03-17T06:13:21;11.60;99.90
19610;DHT22;9952;47.122;-1.638;2023-03-17T06:18:03;11.60;99.90
19610;DHT22;9952;47.122;-1.638;2023-03-17T06:22:47;11.50;99.90
19610;DHT22;9952;47.122;-1.638;2023-03-17T06:27:28;11.50;99.90
19610;DHT22;9952;47.122;-1.638;2023-03-17T06:32:09;11.50;99.90
19610;DHT22;9952;47.122;-1.638;2023-03-17T06:36:50;11.50;99.90
19610;DHT22;9952;47.122;-1.638;2023-03-17T06:41:31;11.50;99.90
19610;DHT22;9952;47.122;-1.638;2023-03-17T06:46:12;11.50;99.90
19610;DHT22;9952;47.122;-1.638;2023-03-17T06:50:53;11.50;99.90
19610;DHT22;9952;47.122;-1.638;2023-03-17T06:55:33;11.50;99.90
19610;DHT22;9952;47.122;-1.638;2023-03-17T07:00:14;11.50;99.90
19610;DHT22;9952;47.122;-1.638;2023-03-17T07:04:55;11.50;99.90
19610;DHT22;9952;47.122;-1.638;2023-03-17T07:09:37;11.50;99.90
19610;DHT22;9952;47.122;-1.638;2023-03-17T07:14:19;11.50;99.90
19610;DHT22;9952;47.122;-1.638;2023-03-17T07:19:00;11.50;99.90
19610;DHT22;9952;47.122;-1.638;2023-03-17T07:23:41;11.50;99.90
19610;DHT22;9952;47.122;-1.638;2023-03-17T07:28:23;11.60;99.90
19610;DHT22;9952;47.122;-1.638;2023-03-17T07:33:04;11.60;99.90
19610;DHT22;9952;47.122;-1.638;2023-03-17T07:37:45;11.60;99.90
19610;DHT22;9952;47.122;-1.638;2023-03-17T07:42:26;11.70;99.90
19610;DHT22;9952;47.122;-1.638;2023-03-17T07:47:09;11.70;99.90
19610;DHT22;9952;47.122;-1.638;2023-03-17T07:51:50;11.70;99.90
19610;DHT22;9952;47.122;-1.638;2023-03-17T07:56:32;11.80;99.90
19610;DHT22;9952;47.122;-1.638;2023-03-17T08:01:12;11.80;99.90
19610;DHT22;9952;47.122;-1.638;2023-03-17T08:05:53;11.80;99.90
19610;DHT22;9952;47.122;-1.638;2023-03-17T08:10:35;11.80;99.90
19610;DHT22;9952;47.122;-1.638;2023-03-17T08:15:16;11.70;99.90
19610;DHT22;9952;47.122;-1.638;2023-03-17T08:19:58;11.80;99.90
19610;DHT22;9952;47.122;-1.638;2023-03-17T08:24:38;11.80;99.90
19610;DHT22;9952;47.122;-1.638;2023-03-17T08:29:22;11.80;99.90
19610;DHT22;9952;47.122;-1.638;2023-03-17T08:34:03;11.80;99.90
19610;DHT22;9952;47.122;-1.638;2023-03-17T08:38:45;11.80;99.90
19610;DHT22;9952;47.122;-1.638;2023-03-17T08:43:26;11.90;99.90
19610;DHT22;9952;47.122;-1.638;2023-03-17T08:48:08;12.00;99.90
19610;DHT22;9952;47.122;-1.638;2023-03-17T08:52:49;12.00;99.90
19610;DHT22;9952;47.122;-1.638;2023-03-17T08:57:31;12.10;99.90
19610;DHT22;9952;47.122;-1.638;2023-03-17T09:02:12;12.20;99.90
19610;DHT22;9952;47.122;-1.638;2023-03-17T09:06:53;12.30;99.90
19610;DHT22;9952;47.122;-1.638;2023-03-17T09:11:34;12.50;99.90
19610;DHT22;9952;47.122;-1.638;2023-03-17T09:16:16;12.70;99.90
19610;DHT22;9952;47.122;-1.638;2023-03-17T09:20:57;12.90;99.90
19610;DHT22;9952;47.122;-1.638;2023-03-17T09:25:39;13.00;99.90
19610;DHT22;9952;47.122;-1.638;2023-03-17T09:30:23;13.30;99.90
19610;DHT22;9952;47.122;-1.638;2023-03-17T09:35:06;13.60;99.90
19610;DHT22;9952;47.122;-1.638;2023-03-17T09:39:47;14.00;99.90
19610;DHT22;9952;47.122;-1.638;2023-03-17T09:49:48;14.40;99.90
19610;DHT22;9952;47.122;-1.638;2023-03-17T09:54:33;14.60;99.90
19610;DHT22;9952;47.122;-1.638;2023-03-17T09:59:31;14.60;99.90
19610;DHT22;9952;47.122;-1.638;2023-03-17T10:04:13;14.60;99.90
19610;DHT22;9952;47.122;-1.638;2023-03-17T10:09:24;14.90;99.90
19610;DHT22;9952;47.122;-1.638;2023-03-17T10:19:05;15.30;99.90
19610;DHT22;9952;47.122;-1.638;2023-03-17T10:23:49;15.50;99.90
19610;DHT22;9952;47.122;-1.638;2023-03-17T10:28:33;15.50;99.90
19610;DHT22;9952;47.122;-1.638;2023-03-17T10:33:18;16.20;99.90
19610;DHT22;9952;47.122;-1.638;2023-03-17T10:37:59;17.00;99.90
19610;DHT22;9952;47.122;-1.638;2023-03-17T10:42:51;17.50;99.90
19610;DHT22;9952;47.122;-1.638;2023-03-17T10:47:39;17.90;99.90
19610;DHT22;9952;47.122;-1.638;2023-03-17T10:52:35;18.10;99.90
19610;DHT22;9952;47.122;-1.638;2023-03-17T10:57:17;18.50;99.90
19610;DHT22;9952;47.122;-1.638;2023-03-17T11:02:00;18.90;99.90
19610;DHT22;9952;47.122;-1.638;2023-03-17T11:06:49;19.00;99.90
19610;DHT22;9952;47.122;-1.638;2023-03-17T11:11:33;19.10;99.90
19610;DHT22;9952;47.122;-1.638;2023-03-17T11:16:22;19.30;99.90
19610;DHT22;9952;47.122;-1.638;2023-03-17T11:21:18;19.40;99.90
19610;DHT22;9952;47.122;-1.638;2023-03-17T11:26:30;19.50;99.90
19610;DHT22;9952;47.122;-1.638;2023-03-17T11:41:07;19.70;99.90
19610;DHT22;9952;47.122;-1.638;2023-03-17T11:55:58;19.60;99.90
19610;DHT22;9952;47.122;-1.638;2023-03-17T12:00:44;19.30;99.90
19610;DHT22;9952;47.122;-1.638;2023-03-17T12:05:30;19.30;99.90
19610;DHT22;9952;47.122;-1.638;2023-03-17T12:15:31;18.80;99.90
19610;DHT22;9952;47.122;-1.638;2023-03-17T12:20:19;18.70;99.90
19610;DHT22;9952;47.122;-1.638;2023-03-17T12:25:32;18.70;99.90
19610;DHT22;9952;47.122;-1.638;2023-03-17T12:30:27;18.40;99.90
19610;DHT22;9952;47.122;-1.638;2023-03-17T12:35:28;18.00;99.90
19610;DHT22;9952;47.122;-1.638;2023-03-17T12:40:18;17.80;99.90
19610;DHT22;9952;47.122;-1.638;2023-03-17T12:45:28;17.60;99.90
19610;DHT22;9952;47.122;-1.638;2023-03-17T12:50:32;17.50;99.90
19610;DHT22;9952;47.122;-1.638;2023-03-17T12:55:23;17.30;99.90
19610;DHT22;9952;47.122;-1.638;2023-03-17T13:00:23;17.30;99.90
19610;DHT22;9952;47.122;-1.638;2023-03-17T13:05:07;17.20;99.90
19610;DHT22;9952;47.122;-1.638;2023-03-17T13:19:23;16.90;99.90
19610;DHT22;9952;47.122;-1.638;2023-03-17T13:24:20;16.70;99.90
19610;DHT22;9952;47.122;-1.638;2023-03-17T13:29:01;16.60;99.90
19610;DHT22;9952;47.122;-1.638;2023-03-17T13:33:44;16.40;99.90
19610;DHT22;9952;47.122;-1.638;2023-03-17T13:48:43;15.90;99.90
19610;DHT22;9952;47.122;-1.638;2023-03-17T13:53:26;15.80;99.90
19610;DHT22;9952;47.122;-1.638;2023-03-17T14:02:54;15.70;99.90
19610;DHT22;9952;47.122;-1.638;2023-03-17T14:08:21;15.50;99.90
19610;DHT22;9952;47.122;-1.638;2023-03-17T14:17:47;15.30;99.90
19610;DHT22;9952;47.122;-1.638;2023-03-17T14:22:29;15.20;99.90
19610;DHT22;9952;47.122;-1.638;2023-03-17T14:27:11;15.10;99.90
19610;DHT22;9952;47.122;-1.638;2023-03-17T14:32:12;15.00;99.90
19610;DHT22;9952;47.122;-1.638;2023-03-17T14:36:53;14.90;99.90
19610;DHT22;9952;47.122;-1.638;2023-03-17T14:41:38;14.80;99.90
19610;DHT22;9952;47.122;-1.638;2023-03-17T14:46:26;14.70;99.90
19610;DHT22;9952;47.122;-1.638;2023-03-17T14:51:33;14.60;99.90
19610;DHT22;9952;47.122;-1.638;2023-03-17T14:56:22;14.50;99.90
19610;DHT22;9952;47.122;-1.638;2023-03-17T15:01:06;14.40;99.90
19610;DHT22;9952;47.122;-1.638;2023-03-17T15:06:04;14.40;99.90
19610;DHT22;9952;47.122;-1.638;2023-03-17T15:10:45;14.40;99.90
19610;DHT22;9952;47.122;-1.638;2023-03-17T15:15:34;14.30;99.90
19610;DHT22;9952;47.122;-1.638;2023-03-17T15:20:17;14.30;99.90
19610;DHT22;9952;47.122;-1.638;2023-03-17T15:29:57;14.40;99.90
19610;DHT22;9952;47.122;-1.638;2023-03-17T15:34:40;14.50;99.90
19610;DHT22;9952;47.122;-1.638;2023-03-17T15:39:20;14.50;99.90
19610;DHT22;9952;47.122;-1.638;2023-03-17T15:44:01;14.60;99.90
19610;DHT22;9952;47.122;-1.638;2023-03-17T15:48:42;14.70;99.90
19610;DHT22;9952;47.122;-1.638;2023-03-17T15:53:23;14.80;99.90
19610;DHT22;9952;47.122;-1.638;2023-03-17T15:58:04;14.80;99.90
19610;DHT22;9952;47.122;-1.638;2023-03-17T16:02:46;14.90;99.90
19610;DHT22;9952;47.122;-1.638;2023-03-17T16:07:28;14.90;99.90
19610;DHT22;9952;47.122;-1.638;2023-03-17T16:12:10;15.10;99.90
19610;DHT22;9952;47.122;-1.638;2023-03-17T16:16:51;15.30;99.90
19610;DHT22;9952;47.122;-1.638;2023-03-17T16:21:32;15.40;99.90
19610;DHT22;9952;47.122;-1.638;2023-03-17T16:26:13;15.40;99.90
19610;DHT22;9952;47.122;-1.638;2023-03-17T16:30:56;15.50;99.90
19610;DHT22;9952;47.122;-1.638;2023-03-17T16:35:38;15.60;99.90
19610;DHT22;9952;47.122;-1.638;2023-03-17T16:40:24;15.70;99.90
19610;DHT22;9952;47.122;-1.638;2023-03-17T16:45:13;15.60;99.90
19610;DHT22;9952;47.122;-1.638;2023-03-17T16:49:54;15.50;99.90
19610;DHT22;9952;47.122;-1.638;2023-03-17T16:54:35;15.50;99.90
19610;DHT22;9952;47.122;-1.638;2023-03-17T16:59:20;15.40;99.90
19610;DHT22;9952;47.122;-1.638;2023-03-17T17:04:01;15.20;99.90
19610;DHT22;9952;47.122;-1.638;2023-03-17T17:08:43;15.20;99.90
19610;DHT22;9952;47.122;-1.638;2023-03-17T17:13:25;15.00;99.90
19610;DHT22;9952;47.122;-1.638;2023-03-17T17:18:10;14.80;99.90
19610;DHT22;9952;47.122;-1.638;2023-03-17T17:22:52;14.60;99.90
19610;DHT22;9952;47.122;-1.638;2023-03-17T17:27:33;14.40;99.90
19610;DHT22;9952;47.122;-1.638;2023-03-17T17:32:14;14.30;99.90
19610;DHT22;9952;47.122;-1.638;2023-03-17T17:36:57;14.20;99.90
19610;DHT22;9952;47.122;-1.638;2023-03-17T17:41:38;14.10;99.90
19610;DHT22;9952;47.122;-1.638;2023-03-17T17:46:20;14.00;99.90
19610;DHT22;9952;47.122;-1.638;2023-03-17T17:51:01;13.90;99.90
19610;DHT22;9952;47.122;-1.638;2023-03-17T17:55:47;13.80;99.90
19610;DHT22;9952;47.122;-1.638;2023-03-17T18:00:28;13.70;99.90
19610;DHT22;9952;47.122;-1.638;2023-03-17T18:05:10;13.60;99.90
19610;DHT22;9952;47.122;-1.638;2023-03-17T18:09:52;13.60;99.90
19610;DHT22;9952;47.122;-1.638;2023-03-17T18:14:32;13.50;99.90
19610;DHT22;9952;47.122;-1.638;2023-03-17T18:19:14;13.50;99.90
19610;DHT22;9952;47.122;-1.638;2023-03-17T18:23:55;13.40;99.90
19610;DHT22;9952;47.122;-1.638;2023-03-17T18:28:36;13.30;99.90
19610;DHT22;9952;47.122;-1.638;2023-03-17T18:33:18;13.30;99.90
19610;DHT22;9952;47.122;-1.638;2023-03-17T18:38:01;13.30;99.90
19610;DHT22;9952;47.122;-1.638;2023-03-17T18:42:42;13.20;99.90
19610;DHT22;9952;47.122;-1.638;2023-03-17T18:47:23;13.20;99.90
19610;DHT22;9952;47.122;-1.638;2023-03-17T18:52:04;13.20;99.90
19610;DHT22;9952;47.122;-1.638;2023-03-17T18:56:45;13.10;99.90
19610;DHT22;9952;47.122;-1.638;2023-03-17T19:01:26;13.10;99.90
19610;DHT22;9952;47.122;-1.638;2023-03-17T19:06:12;13.00;99.90
19610;DHT22;9952;47.122;-1.638;2023-03-17T19:10:53;12.90;99.90
19610;DHT22;9952;47.122;-1.638;2023-03-17T19:15:34;12.80;99.90
19610;DHT22;9952;47.122;-1.638;2023-03-17T19:20:15;12.70;99.90
19610;DHT22;9952;47.122;-1.638;2023-03-17T19:24:56;12.70;99.90
19610;DHT22;9952;47.122;-1.638;2023-03-17T19:29:37;12.60;99.90
19610;DHT22;9952;47.122;-1.638;2023-03-17T19:34:18;12.60;99.90
19610;DHT22;9952;47.122;-1.638;2023-03-17T19:38:59;12.60;99.90
19610;DHT22;9952;47.122;-1.638;2023-03-17T19:43:40;12.60;99.90
19610;DHT22;9952;47.122;-1.638;2023-03-17T19:48:21;12.60;99.90
19610;DHT22;9952;47.122;-1.638;2023-03-17T19:53:02;12.50;99.90
19610;DHT22;9952;47.122;-1.638;2023-03-17T19:57:43;12.50;99.90
19610;DHT22;9952;47.122;-1.638;2023-03-17T20:02:23;12.40;99.90
19610;DHT22;9952;47.122;-1.638;2023-03-17T20:07:04;12.40;99.90
19610;DHT22;9952;47.122;-1.638;2023-03-17T20:11:45;12.40;99.90
19610;DHT22;9952;47.122;-1.638;2023-03-17T20:16:26;12.30;99.90
19610;DHT22;9952;47.122;-1.638;2023-03-17T20:21:11;12.30;99.90
19610;DHT22;9952;47.122;-1.638;2023-03-17T20:25:52;12.30;99.90
19610;DHT22;9952;47.122;-1.638;2023-03-17T20:30:33;12.20;99.90
19610;DHT22;9952;47.122;-1.638;2023-03-17T20:35:14;12.30;99.90
19610;DHT22;9952;47.122;-1.638;2023-03-17T20:39:54;12.20;99.90
19610;DHT22;9952;47.122;-1.638;2023-03-17T20:44:36;12.10;99.90
19610;DHT22;9952;47.122;-1.638;2023-03-17T20:49:17;12.10;99.90
19610;DHT22;9952;47.122;-1.638;2023-03-17T20:53:58;12.10;99.90
19610;DHT22;9952;47.122;-1.638;2023-03-17T20:58:42;12.10;99.90
19610;DHT22;9952;47.122;-1.638;2023-03-17T21:03:24;12.10;99.90
19610;DHT22;9952;47.122;-1.638;2023-03-17T21:08:05;12.00;99.90
19610;DHT22;9952;47.122;-1.638;2023-03-17T21:12:47;12.00;99.90
19610;DHT22;9952;47.122;-1.638;2023-03-17T21:17:30;11.90;99.90
19610;DHT22;9952;47.122;-1.638;2023-03-17T21:22:12;11.80;99.90
19610;DHT22;9952;47.122;-1.638;2023-03-17T21:26:53;11.70;99.90
19610;DHT22;9952;47.122;-1.638;2023-03-17T21:31:34;11.60;99.90
19610;DHT22;9952;47.122;-1.638;2023-03-17T21:36:15;11.60;99.90
19610;DHT22;9952;47.122;-1.638;2023-03-17T21:40:56;11.50;99.90
19610;DHT22;9952;47.122;-1.638;2023-03-17T21:45:38;11.50;99.90
19610;DHT22;9952;47.122;-1.638;2023-03-17T21:50:20;11.50;99.90
19610;DHT22;9952;47.122;-1.638;2023-03-17T21:55:00;11.40;99.90
19610;DHT22;9952;47.122;-1.638;2023-03-17T21:59:41;11.40;99.90
19610;DHT22;9952;47.122;-1.638;2023-03-17T22:04:22;11.30;99.90
19610;DHT22;9952;47.122;-1.638;2023-03-17T22:09:03;11.30;99.90
19610;DHT22;9952;47.122;-1.638;2023-03-17T22:13:45;11.20;99.90
19610;DHT22;9952;47.122;-1.638;2023-03-17T22:18:26;11.20;99.90
19610;DHT22;9952;47.122;-1.638;2023-03-17T22:23:06;11.10;99.90
19610;DHT22;9952;47.122;-1.638;2023-03-17T22:27:47;11.10;99.90
19610;DHT22;9952;47.122;-1.638;2023-03-17T22:32:28;11.10;99.90
19610;DHT22;9952;47.122;-1.638;2023-03-17T22:37:09;11.00;99.90
19610;DHT22;9952;47.122;-1.638;2023-03-17T22:41:50;10.90;99.90
19610;DHT22;9952;47.122;-1.638;2023-03-17T22:46:31;11.00;99.90
19610;DHT22;9952;47.122;-1.638;2023-03-17T22:51:14;10.90;99.90
19610;DHT22;9952;47.122;-1.638;2023-03-17T22:55:57;10.90;99.90
19610;DHT22;9952;47.122;-1.638;2023-03-17T23:00:37;10.90;99.90
19610;DHT22;9952;47.122;-1.638;2023-03-17T23:05:19;10.80;99.90
19610;DHT22;9952;47.122;-1.638;2023-03-17T23:10:06;10.80;99.90
19610;DHT22;9952;47.122;-1.638;2023-03-17T23:14:47;10.80;99.90
19610;DHT22;9952;47.122;-1.638;2023-03-17T23:19:28;10.70;99.90
19610;DHT22;9952;47.122;-1.638;2023-03-17T23:24:09;10.70;99.90
19610;DHT22;9952;47.122;-1.638;2023-03-17T23:28:51;10.70;99.90
19610;DHT22;9952;47.122;-1.638;2023-03-17T23:33:32;10.80;99.90
19610;DHT22;9952;47.122;-1.638;2023-03-17T23:38:15;10.80;99.90
19610;DHT22;9952;47.122;-1.638;2023-03-17T23:42:58;10.90;99.90
19610;DHT22;9952;47.122;-1.638;2023-03-17T23:47:42;10.80;99.90
19610;DHT22;9952;47.122;-1.638;2023-03-17T23:52:23;10.90;99.90
19610;DHT22;9952;47.122;-1.638;2023-03-17T23:57:04;10.90;99.90
